Pagina principală
METAR-TAF:

METAR-TAF

Aeroporturi :

Cluj-Napoca, România

Aeroportul Internațional Avram Iancu Cluj

Latitudine: 46-47N, longitudine: 023-34E, elevație: 410 m

Observații meteo curente

Raportul a fost făcut în urmă cu 25 de minute, la 06:00 UTC
Vânt 1 kt de la Vest/Sud-vest
Temperatură 10°C
Umiditate 87%
Presiune 1016 hPa
Vizibilitate de 10 km sau mai mult
Nori fragmentați la o înălțime de 4300 picior

METAR: LRCL 220600Z 25001KT 9999 BKN043 10/08 Q1016

Ora: 09:25 (06:25 UTC)

Prognoză

Raportul a fost făcut în urmă cu 1 oră și 25 de minute, la 05:00 UTC
Prognoză valabilă de la 22 ora 06 UTC la 22 ora 15 UTC
Vânt 2 kt din direcții variabile
Vizibilitate de 10 km sau mai mult
Nori fragmentați la o înălțime de 3500 picior
Probabilitate 40% :
Temporar
de la 22 ora 06 UTC la 22 ora 08 UTC
Nori fragmentați la o înălțime de 1500 picior

TAF: LRCL 220500Z 2206/2215 VRB02KT 9999 BKN035 PROB40 TEMPO 2206/2208 BKN015

Observații și prognoze meteo pentru peste 4.000 de aeroporturi (rapoarte METAR și TAF).

Stațiile disponibile sunt reprezentate pe hartă prin puncte galbene și roșii.

Țineți indicatorul mouse-ului pe punctul dorit pentru a vedea denumirea stației.

Apoi, faceți clic pentru a vedea observațiile și prognozele meteorologice.

Pentru a schimba harta: Pentru mărire, faceți clic pe butoanele verzi cu cruce neagră; pentru micșorare, pe butonul verde cu o liniuță; pentru hărți învecinate, pe săgețile verzi.


METAR-TAF: